createdAt,value
2022-10-14T00:01:16.589Z,67.46
2022-10-14T00:03:45.028Z,67.64
2022-10-14T00:06:16.784Z,67.64
2022-10-14T00:08:47.829Z,67.57
2022-10-14T00:11:18.733Z,67.67
2022-10-14T00:13:47.002Z,67.85
2022-10-14T00:16:26.878Z,67.68
2022-10-14T00:18:57.270Z,67.41
2022-10-14T00:21:27.436Z,66.94
2022-10-14T00:23:56.280Z,67.29
2022-10-14T00:26:33.440Z,67.54
2022-10-14T00:29:02.270Z,67.96
2022-10-14T00:31:33.330Z,68.34
2022-10-14T00:34:02.147Z,68.63
2022-10-14T00:36:30.200Z,68.56
2022-10-14T00:38:57.691Z,68.19
2022-10-14T00:41:28.694Z,68.15
2022-10-14T00:43:58.995Z,67.74
2022-10-14T00:46:29.864Z,67.26
2022-10-14T00:49:08.051Z,67.53
2022-10-14T00:51:36.864Z,67.51
2022-10-14T00:54:06.964Z,67.33
2022-10-14T00:56:35.722Z,67.88
2022-10-14T00:59:07.341Z,68.05
2022-10-14T01:01:34.791Z,68.13
2022-10-14T01:04:02.516Z,68.39
2022-10-14T01:06:37.384Z,68.50
2022-10-14T01:09:30.465Z,68.40
2022-10-14T01:12:28.712Z,68.52
2022-10-14T01:15:32.323Z,69.01
2022-10-14T01:18:16.723Z,68.93
2022-10-14T01:20:47.459Z,68.27
2022-10-14T01:23:25.568Z,68.27
2022-10-14T01:26:26.021Z,68.02
2022-10-14T01:29:33.283Z,67.75
2022-10-14T01:32:11.336Z,67.02
2022-10-14T01:34:47.575Z,67.06
2022-10-14T01:37:22.486Z,65.94
2022-10-14T01:39:56.083Z,66.05
2022-10-14T01:42:29.811Z,65.76
2022-10-14T01:45:03.581Z,65.36
2022-10-14T01:47:36.551Z,65.51
2022-10-14T01:50:13.581Z,65.54
2022-10-14T01:52:48.092Z,66.19
2022-10-14T01:55:20.701Z,65.76
2022-10-14T01:57:52.145Z,65.81
2022-10-14T02:00:19.890Z,66.08
2022-10-14T02:02:47.469Z,65.70
2022-10-14T02:05:24.603Z,66.03
2022-10-14T02:08:04.773Z,66.31
2022-10-14T02:10:44.631Z,66.57
2022-10-14T02:13:36.200Z,66.45
2022-10-14T02:16:26.499Z,66.24
2022-10-14T02:19:17.277Z,66.20
2022-10-14T02:22:08.823Z,66.16
2022-10-14T02:24:41.516Z,65.90
2022-10-14T02:27:17.192Z,65.55
2022-10-14T02:29:47.815Z,65.99
2022-10-14T02:32:19.629Z,65.81
2022-10-14T02:34:55.177Z,65.31
2022-10-14T02:37:24.345Z,65.54
2022-10-14T02:40:00.207Z,65.58
2022-10-14T02:42:29.634Z,65.27
2022-10-14T02:45:01.943Z,65.52
2022-10-14T02:47:29.863Z,65.74
2022-10-14T02:49:57.826Z,65.91
2022-10-14T02:52:27.278Z,65.86
2022-10-14T02:54:54.884Z,65.99
2022-10-14T02:57:22.937Z,65.90
2022-10-14T02:59:50.733Z,66.35
2022-10-14T03:02:26.267Z,65.96
2022-10-14T03:04:54.035Z,65.83
2022-10-14T03:07:21.619Z,66.12
2022-10-14T03:09:53.615Z,65.62
2022-10-14T03:12:29.704Z,65.13
2022-10-14T03:14:58.695Z,64.61
2022-10-14T03:17:28.011Z,64.84
2022-10-14T03:20:00.390Z,65.09
2022-10-14T03:22:27.974Z,65.63
2022-10-14T03:24:56.742Z,66.09
2022-10-14T03:27:50.978Z,66.46
2022-10-14T03:30:24.320Z,66.34
2022-10-14T03:32:59.447Z,66.61
2022-10-14T03:35:49.957Z,66.50
2022-10-14T03:38:42.807Z,66.28
2022-10-14T03:41:42.005Z,66.20
2022-10-14T03:44:13.650Z,66.47
2022-10-14T03:46:48.377Z,66.61
2022-10-14T03:49:16.259Z,66.59
2022-10-14T03:51:44.136Z,66.38
2022-10-14T03:54:18.998Z,66.18
2022-10-14T03:56:46.585Z,66.17
2022-10-14T03:59:16.878Z,66.53
2022-10-14T04:01:49.384Z,66.92
2022-10-14T04:04:24.583Z,67.07
2022-10-14T04:06:52.559Z,67.77
2022-10-14T04:09:22.516Z,67.82
2022-10-14T04:11:52.493Z,68.02
2022-10-14T04:14:42.862Z,67.52
2022-10-14T04:17:11.628Z,67.57
2022-10-14T04:19:38.988Z,67.45
2022-10-14T04:22:07.151Z,67.37
2022-10-14T04:24:35.022Z,67.22
2022-10-14T04:27:02.856Z,66.98
2022-10-14T04:29:40.472Z,67.38
2022-10-14T04:32:15.711Z,67.37
2022-10-14T04:34:43.657Z,67.52
2022-10-14T04:37:14.832Z,67.32
2022-10-14T04:40:00.345Z,67.11
2022-10-14T04:42:30.315Z,67.15
2022-10-14T04:45:02.801Z,67.24
2022-10-14T04:47:48.336Z,67.47
2022-10-14T04:50:20.491Z,67.58
2022-10-14T04:53:13.097Z,67.79
2022-10-14T04:55:53.428Z,67.50
2022-10-14T04:58:25.972Z,67.74
2022-10-14T05:01:00.455Z,67.76
2022-10-14T05:03:32.935Z,68.06
2022-10-14T05:06:05.008Z,67.88
2022-10-14T05:08:34.545Z,68.21
2022-10-14T05:11:03.012Z,68.34
2022-10-14T05:13:43.448Z,68.63
2022-10-14T05:16:11.926Z,68.29
2022-10-14T05:18:40.132Z,68.25
2022-10-14T05:21:10.742Z,68.02
2022-10-14T05:24:01.006Z,67.90
2022-10-14T05:26:32.295Z,68.15
2022-10-14T05:29:04.586Z,68.19
2022-10-14T05:31:32.872Z,68.30
2022-10-14T05:34:17.684Z,68.35
2022-10-14T05:36:46.375Z,68.66
2022-10-14T05:39:14.819Z,68.58
2022-10-14T05:41:45.298Z,68.85
2022-10-14T05:44:15.546Z,68.60
2022-10-14T05:46:45.587Z,68.87
2022-10-14T05:49:13.672Z,68.88
2022-10-14T05:51:45.399Z,69.05
2022-10-14T05:54:20.232Z,69.32
2022-10-14T05:56:50.910Z,69.50
2022-10-14T05:59:19.920Z,69.28
2022-10-14T06:01:48.673Z,69.33
2022-10-14T06:04:21.489Z,69.77
2022-10-14T06:06:50.756Z,69.34
2022-10-14T06:09:18.632Z,69.35
2022-10-14T06:11:46.996Z,68.82
2022-10-14T06:14:15.871Z,69.06
2022-10-14T06:16:43.787Z,68.82
2022-10-14T06:19:11.501Z,68.70
2022-10-14T06:21:39.131Z,68.30
2022-10-14T06:24:06.913Z,68.31
2022-10-14T06:26:34.522Z,67.78
2022-10-14T06:29:02.694Z,67.49
2022-10-14T06:31:32.456Z,67.60
2022-10-14T06:34:08.019Z,68.01
2022-10-14T06:36:37.744Z,67.77
2022-10-14T06:39:05.843Z,68.20
2022-10-14T06:41:33.949Z,68.64
2022-10-14T06:44:04.704Z,68.65
2022-10-14T06:46:32.351Z,68.58
2022-10-14T06:48:59.817Z,68.22
2022-10-14T06:51:27.411Z,67.92
2022-10-14T06:53:55.049Z,68.00
2022-10-14T06:56:23.167Z,69.67
2022-10-14T06:58:56.902Z,68.97
2022-10-14T07:01:25.780Z,68.32
2022-10-14T07:03:56.763Z,69.25
2022-10-14T07:06:38.176Z,66.75
2022-10-14T07:09:41.164Z,67.81
2022-10-14T07:12:09.577Z,64.99
2022-10-14T07:14:37.039Z,66.02
2022-10-14T07:17:04.798Z,64.71
2022-10-14T07:19:32.373Z,63.68
2022-10-14T07:22:04.020Z,63.38
2022-10-14T07:24:33.603Z,63.79
2022-10-14T07:27:06.171Z,63.48
2022-10-14T07:29:33.473Z,63.57
2022-10-14T07:32:01.529Z,63.79
2022-10-14T07:34:38.906Z,64.01
2022-10-14T07:37:06.553Z,64.42
2022-10-14T07:39:34.688Z,63.28
2022-10-14T07:42:02.464Z,64.50
2022-10-14T07:44:30.402Z,64.23
2022-10-14T07:46:59.538Z,62.55
2022-10-14T07:49:27.406Z,62.36
2022-10-14T07:51:55.486Z,62.08
2022-10-14T07:54:26.260Z,62.21
2022-10-14T07:56:54.117Z,61.92
2022-10-14T07:59:22.364Z,61.60
2022-10-14T08:01:51.579Z,61.60
2022-10-14T08:04:19.862Z,61.96
2022-10-14T08:06:49.035Z,61.65
2022-10-14T08:09:19.167Z,61.15
2022-10-14T08:11:47.675Z,61.89
2022-10-14T08:14:15.535Z,62.23
2022-10-14T08:16:42.795Z,60.86
2022-10-14T08:19:14.485Z,60.38
2022-10-14T08:21:44.195Z,60.08
2022-10-14T08:24:12.040Z,60.14
2022-10-14T08:26:49.168Z,58.95
2022-10-14T08:29:16.857Z,59.02
2022-10-14T08:31:44.913Z,58.21
2022-10-14T08:34:12.524Z,58.51
2022-10-14T08:36:40.023Z,58.08
2022-10-14T08:41:44.896Z,58.04
2022-10-14T08:44:19.806Z,58.55
2022-10-14T08:46:58.826Z,57.56
2022-10-14T08:49:35.801Z,57.71
2022-10-14T08:52:18.579Z,58.62
2022-10-14T08:54:57.319Z,57.01
2022-10-14T08:57:34.129Z,57.90
2022-10-14T09:00:03.028Z,56.33
2022-10-14T09:02:47.780Z,56.38
2022-10-14T09:05:24.245Z,56.43
2022-10-14T09:07:54.888Z,55.57
2022-10-14T09:10:38.049Z,55.67
2022-10-14T09:13:19.037Z,55.12
2022-10-14T09:15:51.038Z,56.17
2022-10-14T09:18:33.963Z,54.23
2022-10-14T09:21:04.642Z,54.49
2022-10-14T09:23:32.156Z,53.67
2022-10-14T09:26:12.402Z,53.47
2022-10-14T09:28:44.129Z,52.88
2022-10-14T09:31:15.318Z,53.48
2022-10-14T09:33:47.439Z,54.28
2022-10-14T09:36:24.991Z,53.73
2022-10-14T09:38:56.580Z,53.31
2022-10-14T09:41:32.955Z,53.02
2022-10-14T09:44:23.244Z,52.90
2022-10-14T09:46:55.799Z,52.66
2022-10-14T09:49:40.799Z,51.84
2022-10-14T09:52:21.502Z,51.85
2022-10-14T09:54:57.388Z,52.57
2022-10-14T09:57:26.873Z,52.56
2022-10-14T10:00:02.371Z,52.33
2022-10-14T10:02:43.954Z,52.28
2022-10-14T10:05:22.944Z,52.42
2022-10-14T10:08:11.722Z,54.79
2022-10-14T10:10:39.278Z,56.65
2022-10-14T10:13:45.503Z,56.84
2022-10-14T10:16:19.390Z,57.82
2022-10-14T10:18:47.005Z,57.35
2022-10-14T10:21:25.238Z,57.56
2022-10-14T10:23:59.353Z,57.17
2022-10-14T10:26:35.078Z,59.59
2022-10-14T10:29:05.551Z,60.57
2022-10-14T10:31:36.286Z,59.34
2022-10-14T10:34:32.594Z,60.19
2022-10-14T10:37:09.195Z,61.79
2022-10-14T10:39:38.845Z,62.73
2022-10-14T10:42:22.405Z,62.04
2022-10-14T10:45:28.569Z,64.31
2022-10-14T10:48:07.020Z,63.55
2022-10-14T10:51:11.650Z,64.65
2022-10-14T10:54:14.859Z,65.50
2022-10-14T10:57:03.434Z,66.56
2022-10-14T11:03:53.190Z,65.95
2022-10-14T11:06:49.062Z,65.91
2022-10-14T11:10:32.247Z,66.46
2022-10-14T11:13:29.349Z,66.25
2022-10-14T11:16:19.775Z,65.50
2022-10-14T11:18:58.816Z,65.08
2022-10-14T11:21:50.659Z,65.32
2022-10-14T11:24:34.502Z,66.85
2022-10-14T11:27:25.408Z,66.80
2022-10-14T11:30:11.707Z,66.21
2022-10-14T11:32:55.749Z,66.51
2022-10-14T11:36:06.057Z,66.04
2022-10-14T11:39:00.580Z,66.03
2022-10-14T11:41:35.989Z,65.42
2022-10-14T11:44:40.969Z,65.29
2022-10-14T11:47:33.201Z,65.56
2022-10-14T11:50:23.589Z,65.93
2022-10-14T11:53:10.740Z,65.38
2022-10-14T11:55:44.446Z,66.39
2022-10-14T11:58:21.614Z,66.44
2022-10-14T12:00:55.570Z,66.29
2022-10-14T12:03:44.141Z,66.01
2022-10-14T12:06:23.316Z,65.12
2022-10-14T12:09:14.043Z,65.70
2022-10-14T12:11:51.852Z,65.31
2022-10-14T12:14:34.481Z,64.86
2022-10-14T12:17:41.039Z,65.22
2022-10-14T12:20:27.672Z,65.25
2022-10-14T12:22:59.424Z,64.59
2022-10-14T12:25:28.696Z,64.54
2022-10-14T12:27:57.106Z,64.69
2022-10-14T12:30:41.781Z,64.07
2022-10-14T12:33:11.898Z,64.11
2022-10-14T12:35:54.945Z,64.55
2022-10-14T12:38:22.288Z,64.09
2022-10-14T12:40:50.036Z,64.78
2022-10-14T12:43:24.409Z,65.26
2022-10-14T12:46:03.367Z,66.15
2022-10-14T12:48:34.334Z,66.09
2022-10-14T12:51:24.717Z,65.17
2022-10-14T12:54:07.793Z,65.11
2022-10-14T12:56:40.099Z,64.98
2022-10-14T12:59:22.542Z,64.43
2022-10-14T13:02:15.650Z,65.78
2022-10-14T13:04:55.338Z,65.87
2022-10-14T13:07:40.040Z,66.13
2022-10-14T13:10:46.808Z,65.69
2022-10-14T13:13:39.181Z,66.92
2022-10-14T13:16:07.872Z,66.30
2022-10-14T13:18:37.280Z,66.71
2022-10-14T13:21:09.686Z,67.58
2022-10-14T13:23:50.495Z,66.72
2022-10-14T13:26:32.719Z,67.58
2022-10-14T13:29:17.955Z,66.94
2022-10-14T13:32:12.272Z,68.19
2022-10-14T13:35:17.239Z,67.31
2022-10-14T13:37:54.611Z,66.66
2022-10-14T13:40:35.406Z,66.76
2022-10-14T13:43:20.491Z,66.75
2022-10-14T13:46:03.952Z,67.54
2022-10-14T13:48:33.270Z,67.38
2022-10-14T13:51:31.891Z,67.57
2022-10-14T13:54:23.989Z,66.99
2022-10-14T13:57:59.938Z,66.59
2022-10-14T14:00:42.696Z,66.86
2022-10-14T14:03:21.305Z,66.14
2022-10-14T14:05:49.940Z,65.51
2022-10-14T14:08:40.969Z,66.09
2022-10-14T14:11:18.506Z,65.36
2022-10-14T14:14:07.185Z,63.14
2022-10-14T14:16:40.523Z,64.65
2022-10-14T14:19:19.322Z,64.76
2022-10-14T14:21:46.715Z,64.97
2022-10-14T14:24:24.548Z,64.78
2022-10-14T14:26:57.656Z,64.47
2022-10-14T14:29:58.405Z,65.50
2022-10-14T14:32:38.756Z,67.16
2022-10-14T14:35:18.100Z,67.82
2022-10-14T14:37:56.118Z,67.88
2022-10-14T14:40:29.953Z,67.61
2022-10-14T14:43:03.521Z,66.69
2022-10-14T14:45:37.449Z,67.80
2022-10-14T14:48:14.238Z,67.85
2022-10-14T14:50:44.839Z,67.43
2022-10-14T14:53:22.178Z,68.17
2022-10-14T14:56:00.738Z,68.18
2022-10-14T14:58:34.053Z,67.72
2022-10-14T15:01:03.267Z,67.91
2022-10-14T15:04:12.873Z,67.90
2022-10-14T15:06:39.531Z,67.49
2022-10-14T15:09:48.633Z,68.34
2022-10-14T15:12:27.398Z,68.09
2022-10-14T15:14:59.603Z,67.50
2022-10-14T15:17:34.675Z,68.04
2022-10-14T15:20:05.154Z,67.40
2022-10-14T15:22:44.859Z,67.62
2022-10-14T15:25:18.414Z,67.70
2022-10-14T15:27:56.391Z,68.38
2022-10-14T15:30:32.150Z,69.27
2022-10-14T15:33:03.052Z,69.40
2022-10-14T15:35:30.816Z,68.99
2022-10-14T15:37:58.595Z,67.74
2022-10-14T15:40:33.168Z,66.58
2022-10-14T15:43:00.410Z,66.39
2022-10-14T15:45:34.691Z,66.83
2022-10-14T15:48:07.395Z,66.48
2022-10-14T15:50:39.934Z,66.43
2022-10-14T15:53:09.480Z,66.64
2022-10-14T15:55:37.941Z,66.40
2022-10-14T15:58:06.631Z,65.95
2022-10-14T16:00:34.510Z,65.76
2022-10-14T16:03:06.171Z,66.78
2022-10-14T16:05:33.897Z,66.51
2022-10-14T16:08:02.048Z,67.15
2022-10-14T16:10:32.052Z,67.04
2022-10-14T16:13:02.417Z,67.09
2022-10-14T16:15:39.339Z,67.42
2022-10-14T16:18:06.648Z,69.13
2022-10-14T16:20:34.314Z,69.01
2022-10-14T16:23:04.700Z,68.73
2022-10-14T16:25:44.277Z,68.64
2022-10-14T16:28:13.400Z,69.60
2022-10-14T16:30:45.245Z,69.65
2022-10-14T16:33:12.494Z,70.34
2022-10-14T16:35:40.024Z,70.39
2022-10-14T16:38:07.585Z,70.47
2022-10-14T16:40:36.829Z,69.91
2022-10-14T16:43:08.072Z,70.33
2022-10-14T16:45:37.769Z,70.46
2022-10-14T16:48:10.685Z,70.70
2022-10-14T16:50:44.766Z,71.34
2022-10-14T16:53:32.915Z,71.52
2022-10-14T16:56:05.205Z,71.83
2022-10-14T16:58:38.375Z,71.93
2022-10-14T17:01:10.233Z,72.52
2022-10-14T17:03:43.835Z,72.54
2022-10-14T17:06:12.860Z,72.91
2022-10-14T17:08:41.572Z,72.76
2022-10-14T17:11:10.173Z,72.96
2022-10-14T17:13:38.779Z,72.31
2022-10-14T17:16:06.992Z,72.62
2022-10-14T17:18:35.966Z,72.33
2022-10-14T17:21:09.438Z,73.43
2022-10-14T17:23:37.755Z,73.43
2022-10-14T17:26:06.026Z,74.16
2022-10-14T17:28:33.596Z,73.89
2022-10-14T17:31:04.308Z,74.90
2022-10-14T17:33:31.871Z,74.51
2022-10-14T17:36:00.688Z,75.16
2022-10-14T17:38:35.507Z,75.69
2022-10-14T17:41:09.782Z,76.03
2022-10-14T17:43:39.447Z,76.40
2022-10-14T17:46:12.676Z,76.05
2022-10-14T17:48:43.758Z,76.45
2022-10-14T17:51:13.162Z,76.51
2022-10-14T17:53:41.151Z,76.36
2022-10-14T17:56:11.899Z,76.17
2022-10-14T17:58:40.545Z,76.52
2022-10-14T18:01:11.030Z,76.73
2022-10-14T18:03:44.275Z,76.75
2022-10-14T18:06:16.646Z,76.74
2022-10-14T18:08:46.117Z,76.47
2022-10-14T18:11:14.240Z,76.53
2022-10-14T18:13:42.430Z,76.78
2022-10-14T18:16:13.772Z,77.34
2022-10-14T18:18:44.137Z,77.19
2022-10-14T18:21:11.627Z,77.41
2022-10-14T18:23:41.309Z,76.84
2022-10-14T18:26:15.578Z,77.05
2022-10-14T18:28:50.013Z,77.71
2022-10-14T18:31:20.266Z,77.42
2022-10-14T18:33:49.504Z,77.42
2022-10-14T18:36:24.007Z,77.71
2022-10-14T18:38:57.829Z,77.56
2022-10-14T18:41:26.640Z,77.99
2022-10-14T18:44:00.853Z,78.19
2022-10-14T18:46:32.185Z,77.88
2022-10-14T18:49:01.587Z,77.66
2022-10-14T18:51:35.275Z,77.86
2022-10-14T18:54:07.150Z,77.94
2022-10-14T18:56:39.017Z,78.09
2022-10-14T18:59:20.713Z,78.26
2022-10-14T19:01:53.614Z,78.11
2022-10-14T19:04:24.462Z,78.13
2022-10-14T19:06:52.220Z,78.56
2022-10-14T19:09:22.459Z,78.02
2022-10-14T19:11:54.094Z,78.80
2022-10-14T19:14:22.576Z,79.19
2022-10-14T19:16:50.300Z,79.27
2022-10-14T19:19:20.056Z,79.13
2022-10-14T19:21:54.739Z,78.74
2022-10-14T19:24:22.924Z,78.70
2022-10-14T19:26:50.782Z,78.82
2022-10-14T19:29:18.685Z,79.25
2022-10-14T19:31:46.839Z,79.02
2022-10-14T19:34:26.927Z,79.02
2022-10-14T19:36:58.080Z,78.86
2022-10-14T19:39:25.517Z,78.24
2022-10-14T19:41:56.249Z,77.93
2022-10-14T19:44:27.689Z,78.09
2022-10-14T19:46:59.519Z,77.75
2022-10-14T19:49:37.713Z,77.87
2022-10-14T19:52:05.821Z,77.97
2022-10-14T19:54:37.438Z,77.95
2022-10-14T19:57:22.545Z,78.03
2022-10-14T19:59:51.267Z,77.80
2022-10-14T20:02:19.943Z,78.24
2022-10-14T20:04:47.447Z,77.98
2022-10-14T20:07:20.109Z,78.10
2022-10-14T20:09:58.105Z,78.05
2022-10-14T20:12:33.538Z,78.23
2022-10-14T20:15:04.423Z,78.41
2022-10-14T20:17:31.960Z,78.86
2022-10-14T20:19:59.967Z,78.70
2022-10-14T20:22:28.017Z,78.86
2022-10-14T20:24:55.901Z,78.74
2022-10-14T20:27:24.603Z,78.32
2022-10-14T20:29:54.607Z,78.16
2022-10-14T20:32:22.513Z,78.48
2022-10-14T20:34:54.813Z,78.19
2022-10-14T20:37:28.051Z,78.40
2022-10-14T20:39:57.949Z,78.67
2022-10-14T20:42:35.032Z,78.45
2022-10-14T20:45:04.848Z,78.21
2022-10-14T20:47:38.220Z,78.70
2022-10-14T20:50:10.687Z,79.07
2022-10-14T20:52:42.267Z,78.58
2022-10-14T20:55:11.109Z,78.82
2022-10-14T20:57:39.920Z,78.87
2022-10-14T21:00:11.274Z,78.66
2022-10-14T21:02:39.833Z,78.59
2022-10-14T21:05:11.545Z,78.55
2022-10-14T21:07:39.784Z,78.35
2022-10-14T21:10:14.816Z,78.08
2022-10-14T21:12:45.333Z,77.74
2022-10-14T21:15:19.011Z,78.01
2022-10-14T21:18:05.358Z,77.16
2022-10-14T21:20:36.860Z,76.98
2022-10-14T21:23:05.806Z,76.82
2022-10-14T21:25:55.922Z,77.22
2022-10-14T21:28:25.764Z,77.67
2022-10-14T21:30:57.386Z,77.78
2022-10-14T21:33:24.722Z,77.43
2022-10-14T21:35:56.404Z,77.71
2022-10-14T21:38:25.691Z,77.10
2022-10-14T21:40:52.990Z,77.24
2022-10-14T21:43:24.690Z,76.61
2022-10-14T21:45:53.834Z,76.04
2022-10-14T21:48:24.090Z,76.18
2022-10-14T21:51:13.274Z,75.87
2022-10-14T21:53:45.576Z,76.07
2022-10-14T21:56:18.968Z,75.86
2022-10-14T21:58:48.798Z,75.58
2022-10-14T22:01:52.982Z,75.47
2022-10-14T22:04:23.488Z,75.49
2022-10-14T22:06:55.873Z,75.43
2022-10-14T22:09:24.218Z,76.19
2022-10-14T22:11:54.121Z,75.76
2022-10-14T22:14:21.859Z,75.03
2022-10-14T22:16:49.961Z,74.70
2022-10-14T22:19:17.952Z,74.49
2022-10-14T22:21:46.640Z,74.39
2022-10-14T22:24:15.514Z,74.31
2022-10-14T22:26:43.327Z,74.11
2022-10-14T22:29:15.738Z,73.70
2022-10-14T22:31:47.706Z,73.76
2022-10-14T22:34:16.245Z,73.82
2022-10-14T22:36:45.586Z,74.11
2022-10-14T22:39:17.493Z,73.66
2022-10-14T22:41:45.269Z,73.79
2022-10-14T22:44:15.182Z,73.07
2022-10-14T22:46:42.933Z,73.53
2022-10-14T22:49:10.555Z,73.12
2022-10-14T22:51:43.371Z,72.75
2022-10-14T22:54:17.027Z,72.72
2022-10-14T22:56:48.489Z,72.61
2022-10-14T22:59:34.506Z,72.68
2022-10-14T23:02:11.872Z,73.01
2022-10-14T23:04:58.217Z,72.91
2022-10-14T23:07:29.783Z,72.88
2022-10-14T23:10:05.423Z,72.66
2022-10-14T23:12:37.478Z,72.40
2022-10-14T23:15:39.794Z,72.49
2022-10-14T23:18:19.855Z,72.41
2022-10-14T23:20:54.644Z,72.30
2022-10-14T23:23:27.625Z,72.76
2022-10-14T23:26:02.050Z,72.57
2022-10-14T23:28:55.285Z,72.31
2022-10-14T23:31:39.168Z,72.86
2022-10-14T23:34:15.528Z,72.82
2022-10-14T23:36:45.400Z,72.97
2022-10-14T23:39:16.167Z,72.64
2022-10-14T23:41:54.239Z,72.73
2022-10-14T23:44:31.807Z,72.79
2022-10-14T23:47:43.638Z,72.89
2022-10-14T23:50:41.001Z,72.78
2022-10-14T23:53:41.875Z,73.08
2022-10-14T23:56:18.742Z,73.23
